sensor_id;sensor_type;location;lat;lon;timestamp;P1;durP1;ratioP1;P2;durP2;ratioP2
62353;SDS011;48391;49.184;2.418;2022-08-19T00:01:30;7.38;;;6.47;;
62353;SDS011;48391;49.184;2.418;2022-08-19T00:03:57;7.30;;;6.40;;
62353;SDS011;48391;49.184;2.418;2022-08-19T00:06:23;7.20;;;5.95;;
62353;SDS011;48391;49.184;2.418;2022-08-19T00:08:49;6.75;;;6.05;;
62353;SDS011;48391;49.184;2.418;2022-08-19T00:11:16;7.50;;;6.57;;
62353;SDS011;48391;49.184;2.418;2022-08-19T00:13:42;12.18;;;7.47;;
62353;SDS011;48391;49.184;2.418;2022-08-19T00:16:08;10.15;;;7.53;;
62353;SDS011;48391;49.184;2.418;2022-08-19T00:18:34;9.93;;;7.65;;
62353;SDS011;48391;49.184;2.418;2022-08-19T00:21:00;7.80;;;7.05;;
62353;SDS011;48391;49.184;2.418;2022-08-19T00:23:27;8.02;;;7.25;;
62353;SDS011;48391;49.184;2.418;2022-08-19T00:25:53;7.88;;;6.75;;
62353;SDS011;48391;49.184;2.418;2022-08-19T00:28:19;8.18;;;6.78;;
62353;SDS011;48391;49.184;2.418;2022-08-19T00:30:45;8.30;;;7.50;;
62353;SDS011;48391;49.184;2.418;2022-08-19T00:33:11;7.20;;;6.50;;
62353;SDS011;48391;49.184;2.418;2022-08-19T00:35:38;8.55;;;7.22;;
62353;SDS011;48391;49.184;2.418;2022-08-19T00:38:04;9.02;;;8.13;;
62353;SDS011;48391;49.184;2.418;2022-08-19T00:40:32;7.97;;;7.30;;
62353;SDS011;48391;49.184;2.418;2022-08-19T00:42:58;7.03;;;6.30;;
62353;SDS011;48391;49.184;2.418;2022-08-19T05:18:58;14.95;;;8.82;;
62353;SDS011;48391;49.184;2.418;2022-08-19T05:21:43;11.60;;;9.80;;
62353;SDS011;48391;49.184;2.418;2022-08-19T05:24:27;12.10;;;9.18;;
62353;SDS011;48391;49.184;2.418;2022-08-19T05:26:54;9.63;;;7.13;;
62353;SDS011;48391;49.184;2.418;2022-08-19T06:05:33;13.95;;;7.35;;
62353;SDS011;48391;49.184;2.418;2022-08-19T06:07:59;9.68;;;8.07;;
62353;SDS011;48391;49.184;2.418;2022-08-19T06:10:25;11.63;;;8.60;;
62353;SDS011;48391;49.184;2.418;2022-08-19T06:12:52;11.55;;;7.85;;
62353;SDS011;48391;49.184;2.418;2022-08-19T06:15:18;11.73;;;7.47;;
62353;SDS011;48391;49.184;2.418;2022-08-19T06:17:44;9.75;;;6.82;;
62353;SDS011;48391;49.184;2.418;2022-08-19T06:20:12;10.45;;;7.50;;
62353;SDS011;48391;49.184;2.418;2022-08-19T06:22:43;8.40;;;6.75;;
62353;SDS011;48391;49.184;2.418;2022-08-19T06:29:43;7.45;;;5.88;;
62353;SDS011;48391;49.184;2.418;2022-08-19T06:32:09;6.05;;;5.38;;
62353;SDS011;48391;49.184;2.418;2022-08-19T06:34:36;7.43;;;6.45;;
62353;SDS011;48391;49.184;2.418;2022-08-19T06:37:02;5.88;;;5.38;;
62353;SDS011;48391;49.184;2.418;2022-08-19T06:39:29;6.25;;;5.45;;
62353;SDS011;48391;49.184;2.418;2022-08-19T06:41:57;4.82;;;4.35;;
62353;SDS011;48391;49.184;2.418;2022-08-19T06:44:24;5.53;;;4.55;;
62353;SDS011;48391;49.184;2.418;2022-08-19T06:46:51;8.85;;;4.88;;
62353;SDS011;48391;49.184;2.418;2022-08-19T06:49:17;4.60;;;4.07;;
62353;SDS011;48391;49.184;2.418;2022-08-19T06:51:44;5.88;;;5.13;;
62353;SDS011;48391;49.184;2.418;2022-08-19T06:54:14;8.70;;;4.20;;
62353;SDS011;48391;49.184;2.418;2022-08-19T06:56:40;6.53;;;3.88;;
62353;SDS011;48391;49.184;2.418;2022-08-19T06:59:08;5.53;;;3.67;;
62353;SDS011;48391;49.184;2.418;2022-08-19T07:01:38;5.20;;;3.58;;
62353;SDS011;48391;49.184;2.418;2022-08-19T07:04:05;4.38;;;3.28;;
62353;SDS011;48391;49.184;2.418;2022-08-19T07:06:32;3.78;;;3.47;;
62353;SDS011;48391;49.184;2.418;2022-08-19T07:08:58;5.28;;;3.00;;
62353;SDS011;48391;49.184;2.418;2022-08-19T07:11:24;3.80;;;3.15;;
62353;SDS011;48391;49.184;2.418;2022-08-19T07:13:50;4.10;;;3.63;;
62353;SDS011;48391;49.184;2.418;2022-08-19T07:16:17;4.38;;;3.40;;
62353;SDS011;48391;49.184;2.418;2022-08-19T07:18:47;2.88;;;2.55;;
62353;SDS011;48391;49.184;2.418;2022-08-19T07:21:17;4.32;;;4.00;;
62353;SDS011;48391;49.184;2.418;2022-08-19T07:26:14;3.40;;;2.70;;
62353;SDS011;48391;49.184;2.418;2022-08-19T07:28:41;6.53;;;2.22;;
62353;SDS011;48391;49.184;2.418;2022-08-19T07:31:09;2.35;;;2.15;;
62353;SDS011;48391;49.184;2.418;2022-08-19T07:33:35;2.70;;;2.50;;
62353;SDS011;48391;49.184;2.418;2022-08-19T07:36:02;2.60;;;2.40;;
62353;SDS011;48391;49.184;2.418;2022-08-19T07:38:29;2.83;;;2.38;;
62353;SDS011;48391;49.184;2.418;2022-08-19T07:40:55;10.32;;;3.55;;
62353;SDS011;48391;49.184;2.418;2022-08-19T07:43:21;3.28;;;2.72;;
62353;SDS011;48391;49.184;2.418;2022-08-19T07:45:50;3.22;;;2.10;;
62353;SDS011;48391;49.184;2.418;2022-08-19T07:48:18;2.05;;;1.73;;
62353;SDS011;48391;49.184;2.418;2022-08-19T07:50:44;2.15;;;2.05;;
62353;SDS011;48391;49.184;2.418;2022-08-19T07:53:10;2.50;;;1.70;;
62353;SDS011;48391;49.184;2.418;2022-08-19T07:55:37;1.48;;;1.00;;
62353;SDS011;48391;49.184;2.418;2022-08-19T07:58:03;1.80;;;1.65;;
62353;SDS011;48391;49.184;2.418;2022-08-19T08:00:29;3.55;;;1.40;;
62353;SDS011;48391;49.184;2.418;2022-08-19T08:02:55;2.78;;;2.08;;
62353;SDS011;48391;49.184;2.418;2022-08-19T08:05:22;2.63;;;1.13;;
62353;SDS011;48391;49.184;2.418;2022-08-19T08:08:07;0.85;;;0.70;;
62353;SDS011;48391;49.184;2.418;2022-08-19T08:10:51;1.35;;;1.23;;
62353;SDS011;48391;49.184;2.418;2022-08-19T08:13:17;1.20;;;1.10;;
62353;SDS011;48391;49.184;2.418;2022-08-19T08:15:43;1.63;;;1.15;;
62353;SDS011;48391;49.184;2.418;2022-08-19T08:18:10;1.05;;;1.00;;
62353;SDS011;48391;49.184;2.418;2022-08-19T08:20:36;0.60;;;0.60;;
62353;SDS011;48391;49.184;2.418;2022-08-19T08:23:03;1.20;;;1.10;;
62353;SDS011;48391;49.184;2.418;2022-08-19T08:25:47;2.47;;;1.05;;
62353;SDS011;48391;49.184;2.418;2022-08-19T08:28:14;11.88;;;2.75;;
62353;SDS011;48391;49.184;2.418;2022-08-19T08:30:40;0.52;;;0.50;;
62353;SDS011;48391;49.184;2.418;2022-08-19T08:33:08;2.33;;;1.30;;
62353;SDS011;48391;49.184;2.418;2022-08-19T08:35:35;1.08;;;1.08;;
62353;SDS011;48391;49.184;2.418;2022-08-19T08:38:01;1.50;;;0.88;;
62353;SDS011;48391;49.184;2.418;2022-08-19T08:40:31;1.02;;;0.63;;
62353;SDS011;48391;49.184;2.418;2022-08-19T08:45:52;4.70;;;1.17;;
62353;SDS011;48391;49.184;2.418;2022-08-19T08:51:00;2.08;;;0.68;;
62353;SDS011;48391;49.184;2.418;2022-08-19T08:53:27;2.22;;;0.98;;
62353;SDS011;48391;49.184;2.418;2022-08-19T08:55:53;0.70;;;0.70;;
62353;SDS011;48391;49.184;2.418;2022-08-19T08:58:27;1.75;;;0.93;;
62353;SDS011;48391;49.184;2.418;2022-08-19T09:00:55;1.75;;;0.90;;
62353;SDS011;48391;49.184;2.418;2022-08-19T09:03:23;1.35;;;0.82;;
62353;SDS011;48391;49.184;2.418;2022-08-19T09:05:55;0.85;;;0.68;;
62353;SDS011;48391;49.184;2.418;2022-08-19T09:08:35;0.55;;;0.50;;
62353;SDS011;48391;49.184;2.418;2022-08-19T09:11:06;1.63;;;0.60;;
62353;SDS011;48391;49.184;2.418;2022-08-19T09:13:38;0.63;;;0.63;;
62353;SDS011;48391;49.184;2.418;2022-08-19T09:16:11;1.17;;;0.70;;
62353;SDS011;48391;49.184;2.418;2022-08-19T09:18:46;0.70;;;0.57;;
62353;SDS011;48391;49.184;2.418;2022-08-19T09:21:13;0.73;;;0.73;;
62353;SDS011;48391;49.184;2.418;2022-08-19T09:23:40;3.00;;;0.63;;
62353;SDS011;48391;49.184;2.418;2022-08-19T09:26:12;0.77;;;0.77;;
62353;SDS011;48391;49.184;2.418;2022-08-19T09:28:39;0.80;;;0.70;;
62353;SDS011;48391;49.184;2.418;2022-08-19T09:31:12;1.17;;;0.82;;
62353;SDS011;48391;49.184;2.418;2022-08-19T09:33:38;1.35;;;0.70;;
62353;SDS011;48391;49.184;2.418;2022-08-19T09:36:08;1.30;;;0.68;;
62353;SDS011;48391;49.184;2.418;2022-08-19T09:38:35;0.93;;;0.82;;
62353;SDS011;48391;49.184;2.418;2022-08-19T09:41:07;1.02;;;0.75;;
62353;SDS011;48391;49.184;2.418;2022-08-19T09:43:33;0.85;;;0.85;;
62353;SDS011;48391;49.184;2.418;2022-08-19T09:46:02;1.25;;;1.10;;
62353;SDS011;48391;49.184;2.418;2022-08-19T09:48:30;1.17;;;0.82;;
62353;SDS011;48391;49.184;2.418;2022-08-19T09:51:07;1.63;;;1.30;;
62353;SDS011;48391;49.184;2.418;2022-08-19T09:53:37;1.27;;;0.88;;
62353;SDS011;48391;49.184;2.418;2022-08-19T09:56:04;1.45;;;0.85;;
62353;SDS011;48391;49.184;2.418;2022-08-19T09:58:34;2.47;;;0.90;;
62353;SDS011;48391;49.184;2.418;2022-08-19T10:01:00;0.73;;;0.63;;
62353;SDS011;48391;49.184;2.418;2022-08-19T10:03:27;1.50;;;0.98;;
62353;SDS011;48391;49.184;2.418;2022-08-19T10:05:54;4.43;;;1.08;;
62353;SDS011;48391;49.184;2.418;2022-08-19T10:08:21;3.03;;;0.90;;
62353;SDS011;48391;49.184;2.418;2022-08-19T10:10:50;0.40;;;0.40;;
62353;SDS011;48391;49.184;2.418;2022-08-19T10:13:17;1.35;;;0.95;;
62353;SDS011;48391;49.184;2.418;2022-08-19T10:15:46;2.10;;;1.00;;
62353;SDS011;48391;49.184;2.418;2022-08-19T10:18:15;1.90;;;0.45;;
62353;SDS011;48391;49.184;2.418;2022-08-19T10:20:42;1.20;;;1.02;;
62353;SDS011;48391;49.184;2.418;2022-08-19T10:23:10;4.03;;;1.10;;
62353;SDS011;48391;49.184;2.418;2022-08-19T10:25:36;2.47;;;0.50;;
62353;SDS011;48391;49.184;2.418;2022-08-19T10:28:02;2.92;;;0.50;;
62353;SDS011;48391;49.184;2.418;2022-08-19T10:30:29;0.38;;;0.38;;
62353;SDS011;48391;49.184;2.418;2022-08-19T10:32:55;1.20;;;0.40;;
62353;SDS011;48391;49.184;2.418;2022-08-19T10:35:21;1.83;;;0.65;;
62353;SDS011;48391;49.184;2.418;2022-08-19T10:37:47;1.52;;;0.43;;
62353;SDS011;48391;49.184;2.418;2022-08-19T10:40:13;1.50;;;0.30;;
62353;SDS011;48391;49.184;2.418;2022-08-19T10:42:39;1.13;;;0.50;;
62353;SDS011;48391;49.184;2.418;2022-08-19T10:45:05;1.33;;;0.70;;
62353;SDS011;48391;49.184;2.418;2022-08-19T10:47:32;0.30;;;0.10;;
62353;SDS011;48391;49.184;2.418;2022-08-19T10:49:58;0.30;;;0.30;;
62353;SDS011;48391;49.184;2.418;2022-08-19T10:52:44;0.55;;;0.40;;
62353;SDS011;48391;49.184;2.418;2022-08-19T10:55:11;0.75;;;0.75;;
62353;SDS011;48391;49.184;2.418;2022-08-19T10:57:56;0.77;;;0.77;;
62353;SDS011;48391;49.184;2.418;2022-08-19T11:00:22;5.35;;;0.52;;
62353;SDS011;48391;49.184;2.418;2022-08-19T11:02:49;2.67;;;0.82;;
62353;SDS011;48391;49.184;2.418;2022-08-19T11:05:15;1.92;;;0.65;;
62353;SDS011;48391;49.184;2.418;2022-08-19T11:10:18;1.13;;;0.50;;
62353;SDS011;48391;49.184;2.418;2022-08-19T11:12:44;0.93;;;0.60;;
62353;SDS011;48391;49.184;2.418;2022-08-19T11:15:11;0.93;;;0.40;;
62353;SDS011;48391;49.184;2.418;2022-08-19T11:17:38;1.52;;;0.30;;
62353;SDS011;48391;49.184;2.418;2022-08-19T11:20:07;0.70;;;0.38;;
62353;SDS011;48391;49.184;2.418;2022-08-19T11:22:34;0.57;;;0.45;;
62353;SDS011;48391;49.184;2.418;2022-08-19T11:25:00;2.75;;;0.30;;
62353;SDS011;48391;49.184;2.418;2022-08-19T11:27:27;1.85;;;0.75;;
62353;SDS011;48391;49.184;2.418;2022-08-19T11:29:53;1.25;;;0.60;;
62353;SDS011;48391;49.184;2.418;2022-08-19T11:32:19;0.60;;;0.40;;
62353;SDS011;48391;49.184;2.418;2022-08-19T11:34:46;0.95;;;0.40;;
62353;SDS011;48391;49.184;2.418;2022-08-19T11:37:12;0.55;;;0.50;;
62353;SDS011;48391;49.184;2.418;2022-08-19T11:39:38;0.68;;;0.40;;
62353;SDS011;48391;49.184;2.418;2022-08-19T11:42:05;1.77;;;0.40;;
62353;SDS011;48391;49.184;2.418;2022-08-19T11:44:51;1.58;;;0.82;;
62353;SDS011;48391;49.184;2.418;2022-08-19T11:47:17;0.68;;;0.45;;
62353;SDS011;48391;49.184;2.418;2022-08-19T11:49:45;1.25;;;0.50;;
62353;SDS011;48391;49.184;2.418;2022-08-19T11:52:11;0.40;;;0.30;;
62353;SDS011;48391;49.184;2.418;2022-08-19T11:54:37;1.45;;;0.45;;
62353;SDS011;48391;49.184;2.418;2022-08-19T11:57:03;0.30;;;0.30;;
62353;SDS011;48391;49.184;2.418;2022-08-19T11:59:29;1.65;;;0.47;;
62353;SDS011;48391;49.184;2.418;2022-08-19T12:01:56;0.98;;;0.63;;
62353;SDS011;48391;49.184;2.418;2022-08-19T12:04:22;0.82;;;0.50;;
62353;SDS011;48391;49.184;2.418;2022-08-19T12:06:49;1.02;;;0.60;;
62353;SDS011;48391;49.184;2.418;2022-08-19T12:09:15;1.38;;;0.40;;
62353;SDS011;48391;49.184;2.418;2022-08-19T12:11:42;0.98;;;0.55;;
62353;SDS011;48391;49.184;2.418;2022-08-19T12:14:09;0.93;;;0.30;;
62353;SDS011;48391;49.184;2.418;2022-08-19T12:16:36;1.30;;;0.60;;
62353;SDS011;48391;49.184;2.418;2022-08-19T12:19:03;0.25;;;0.20;;
62353;SDS011;48391;49.184;2.418;2022-08-19T12:21:30;1.55;;;0.50;;
62353;SDS011;48391;49.184;2.418;2022-08-19T12:23:57;1.20;;;0.32;;
62353;SDS011;48391;49.184;2.418;2022-08-19T12:26:25;0.52;;;0.52;;
62353;SDS011;48391;49.184;2.418;2022-08-19T12:28:51;1.40;;;0.50;;
62353;SDS011;48391;49.184;2.418;2022-08-19T12:31:17;1.02;;;0.60;;
62353;SDS011;48391;49.184;2.418;2022-08-19T12:33:44;1.63;;;0.32;;
62353;SDS011;48391;49.184;2.418;2022-08-19T12:36:12;2.53;;;0.70;;
62353;SDS011;48391;49.184;2.418;2022-08-19T12:38:39;2.30;;;0.85;;
62353;SDS011;48391;49.184;2.418;2022-08-19T12:41:05;4.53;;;1.02;;
62353;SDS011;48391;49.184;2.418;2022-08-19T12:43:35;3.00;;;0.30;;
62353;SDS011;48391;49.184;2.418;2022-08-19T12:46:03;1.00;;;0.30;;
62353;SDS011;48391;49.184;2.418;2022-08-19T12:48:30;2.97;;;0.82;;
62353;SDS011;48391;49.184;2.418;2022-08-19T12:50:56;1.75;;;0.60;;
62353;SDS011;48391;49.184;2.418;2022-08-19T12:53:22;3.10;;;0.85;;
62353;SDS011;48391;49.184;2.418;2022-08-19T12:55:56;0.30;;;0.30;;
62353;SDS011;48391;49.184;2.418;2022-08-19T12:58:22;2.45;;;0.50;;
62353;SDS011;48391;49.184;2.418;2022-08-19T13:00:48;5.97;;;0.50;;
62353;SDS011;48391;49.184;2.418;2022-08-19T13:03:14;0.85;;;0.20;;
62353;SDS011;48391;49.184;2.418;2022-08-19T13:05:40;1.40;;;0.20;;
62353;SDS011;48391;49.184;2.418;2022-08-19T13:08:07;1.10;;;0.60;;
62353;SDS011;48391;49.184;2.418;2022-08-19T13:10:34;1.05;;;0.22;;
62353;SDS011;48391;49.184;2.418;2022-08-19T13:13:01;0.52;;;0.22;;
62353;SDS011;48391;49.184;2.418;2022-08-19T13:15:28;1.63;;;1.20;;
62353;SDS011;48391;49.184;2.418;2022-08-19T13:17:57;1.13;;;0.50;;
62353;SDS011;48391;49.184;2.418;2022-08-19T13:20:23;5.25;;;1.48;;
62353;SDS011;48391;49.184;2.418;2022-08-19T13:22:49;2.92;;;0.85;;
62353;SDS011;48391;49.184;2.418;2022-08-19T13:25:16;4.20;;;0.50;;
62353;SDS011;48391;49.184;2.418;2022-08-19T13:27:44;0.63;;;0.40;;
62353;SDS011;48391;49.184;2.418;2022-08-19T13:30:11;1.25;;;0.47;;
62353;SDS011;48391;49.184;2.418;2022-08-19T13:32:56;2.08;;;0.35;;
62353;SDS011;48391;49.184;2.418;2022-08-19T13:35:42;1.02;;;0.40;;
62353;SDS011;48391;49.184;2.418;2022-08-19T13:38:09;3.42;;;0.57;;
62353;SDS011;48391;49.184;2.418;2022-08-19T13:40:35;0.98;;;0.40;;
62353;SDS011;48391;49.184;2.418;2022-08-19T13:43:02;0.63;;;0.60;;
62353;SDS011;48391;49.184;2.418;2022-08-19T13:45:29;1.88;;;0.52;;
62353;SDS011;48391;49.184;2.418;2022-08-19T13:47:58;0.30;;;0.30;;
62353;SDS011;48391;49.184;2.418;2022-08-19T13:50:28;0.65;;;0.65;;
62353;SDS011;48391;49.184;2.418;2022-08-19T13:52:59;0.52;;;0.50;;
62353;SDS011;48391;49.184;2.418;2022-08-19T13:55:25;1.20;;;0.50;;
62353;SDS011;48391;49.184;2.418;2022-08-19T13:57:55;0.88;;;0.50;;
62353;SDS011;48391;49.184;2.418;2022-08-19T14:00:22;0.95;;;0.30;;
62353;SDS011;48391;49.184;2.418;2022-08-19T14:02:51;4.65;;;0.60;;
62353;SDS011;48391;49.184;2.418;2022-08-19T14:05:18;0.70;;;0.40;;
62353;SDS011;48391;49.184;2.418;2022-08-19T14:07:44;3.33;;;0.40;;
62353;SDS011;48391;49.184;2.418;2022-08-19T14:10:11;1.00;;;0.60;;
62353;SDS011;48391;49.184;2.418;2022-08-19T14:12:38;0.70;;;0.32;;
62353;SDS011;48391;49.184;2.418;2022-08-19T14:15:04;0.32;;;0.30;;
62353;SDS011;48391;49.184;2.418;2022-08-19T14:17:31;0.22;;;0.22;;
62353;SDS011;48391;49.184;2.418;2022-08-19T14:19:57;1.85;;;0.30;;
62353;SDS011;48391;49.184;2.418;2022-08-19T14:22:25;0.82;;;0.30;;
62353;SDS011;48391;49.184;2.418;2022-08-19T14:24:51;0.82;;;0.40;;
62353;SDS011;48391;49.184;2.418;2022-08-19T14:27:17;1.70;;;0.52;;
62353;SDS011;48391;49.184;2.418;2022-08-19T14:29:43;0.98;;;0.43;;
62353;SDS011;48391;49.184;2.418;2022-08-19T14:32:10;0.68;;;0.30;;
62353;SDS011;48391;49.184;2.418;2022-08-19T14:34:37;3.53;;;0.50;;
62353;SDS011;48391;49.184;2.418;2022-08-19T14:37:03;2.33;;;0.32;;
62353;SDS011;48391;49.184;2.418;2022-08-19T14:39:30;1.90;;;0.40;;
62353;SDS011;48391;49.184;2.418;2022-08-19T14:41:56;5.28;;;0.52;;
62353;SDS011;48391;49.184;2.418;2022-08-19T14:44:23;0.43;;;0.20;;
62353;SDS011;48391;49.184;2.418;2022-08-19T14:46:49;1.42;;;0.50;;
62353;SDS011;48391;49.184;2.418;2022-08-19T14:49:16;0.82;;;0.32;;
62353;SDS011;48391;49.184;2.418;2022-08-19T14:51:43;2.53;;;0.40;;
62353;SDS011;48391;49.184;2.418;2022-08-19T14:54:11;1.55;;;0.40;;
62353;SDS011;48391;49.184;2.418;2022-08-19T14:56:37;3.92;;;0.75;;
62353;SDS011;48391;49.184;2.418;2022-08-19T14:59:06;1.10;;;0.10;;
62353;SDS011;48391;49.184;2.418;2022-08-19T15:01:32;0.40;;;0.28;;
62353;SDS011;48391;49.184;2.418;2022-08-19T15:03:58;0.50;;;0.32;;
62353;SDS011;48391;49.184;2.418;2022-08-19T15:06:24;0.60;;;0.20;;
62353;SDS011;48391;49.184;2.418;2022-08-19T15:08:51;0.60;;;0.30;;
62353;SDS011;48391;49.184;2.418;2022-08-19T15:11:18;1.58;;;0.45;;
62353;SDS011;48391;49.184;2.418;2022-08-19T15:13:46;0.20;;;0.17;;
62353;SDS011;48391;49.184;2.418;2022-08-19T15:16:12;0.98;;;0.32;;
62353;SDS011;48391;49.184;2.418;2022-08-19T15:18:41;0.88;;;0.22;;
62353;SDS011;48391;49.184;2.418;2022-08-19T15:21:09;0.60;;;0.20;;
62353;SDS011;48391;49.184;2.418;2022-08-19T15:23:37;0.35;;;0.32;;
62353;SDS011;48391;49.184;2.418;2022-08-19T15:26:04;0.55;;;0.00;;
62353;SDS011;48391;49.184;2.418;2022-08-19T15:28:31;0.10;;;0.10;;
62353;SDS011;48391;49.184;2.418;2022-08-19T15:30:57;0.85;;;0.10;;
62353;SDS011;48391;49.184;2.418;2022-08-19T15:33:24;0.95;;;0.20;;
62353;SDS011;48391;49.184;2.418;2022-08-19T15:35:50;0.30;;;0.20;;
62353;SDS011;48391;49.184;2.418;2022-08-19T15:38:18;0.52;;;0.25;;
62353;SDS011;48391;49.184;2.418;2022-08-19T15:40:48;1.30;;;0.30;;
62353;SDS011;48391;49.184;2.418;2022-08-19T15:43:15;0.70;;;0.10;;
62353;SDS011;48391;49.184;2.418;2022-08-19T15:45:41;6.60;;;2.47;;
62353;SDS011;48391;49.184;2.418;2022-08-19T15:48:07;0.40;;;0.20;;
62353;SDS011;48391;49.184;2.418;2022-08-19T15:50:33;0.95;;;0.13;;
62353;SDS011;48391;49.184;2.418;2022-08-19T15:53:04;1.13;;;0.20;;
62353;SDS011;48391;49.184;2.418;2022-08-19T15:55:31;1.27;;;0.63;;
62353;SDS011;48391;49.184;2.418;2022-08-19T15:57:58;0.20;;;0.05;;
62353;SDS011;48391;49.184;2.418;2022-08-19T16:00:42;0.43;;;0.35;;
62353;SDS011;48391;49.184;2.418;2022-08-19T16:03:27;0.20;;;0.20;;
62353;SDS011;48391;49.184;2.418;2022-08-19T16:06:12;0.22;;;0.17;;
62353;SDS011;48391;49.184;2.418;2022-08-19T16:08:51;1.30;;;0.32;;
62353;SDS011;48391;49.184;2.418;2022-08-19T16:11:19;1.00;;;0.20;;
62353;SDS011;48391;49.184;2.418;2022-08-19T16:13:46;1.95;;;0.15;;
62353;SDS011;48391;49.184;2.418;2022-08-19T16:16:19;0.10;;;0.10;;
62353;SDS011;48391;49.184;2.418;2022-08-19T16:18:45;0.55;;;0.25;;
62353;SDS011;48391;49.184;2.418;2022-08-19T16:21:12;0.52;;;0.38;;
62353;SDS011;48391;49.184;2.418;2022-08-19T16:23:38;1.48;;;0.20;;
62353;SDS011;48391;49.184;2.418;2022-08-19T16:26:05;2.17;;;0.20;;
62353;SDS011;48391;49.184;2.418;2022-08-19T16:28:31;0.20;;;0.00;;
62353;SDS011;48391;49.184;2.418;2022-08-19T16:30:57;0.40;;;0.08;;
62353;SDS011;48391;49.184;2.418;2022-08-19T16:33:23;0.15;;;0.00;;
62353;SDS011;48391;49.184;2.418;2022-08-19T16:35:49;1.58;;;0.30;;
62353;SDS011;48391;49.184;2.418;2022-08-19T16:38:15;0.25;;;0.00;;
62353;SDS011;48391;49.184;2.418;2022-08-19T16:40:41;1.30;;;0.20;;
62353;SDS011;48391;49.184;2.418;2022-08-19T16:43:07;0.20;;;0.20;;
62353;SDS011;48391;49.184;2.418;2022-08-19T16:45:34;0.10;;;0.00;;
62353;SDS011;48391;49.184;2.418;2022-08-19T16:48:00;1.05;;;0.20;;
62353;SDS011;48391;49.184;2.418;2022-08-19T16:50:26;0.98;;;0.20;;
62353;SDS011;48391;49.184;2.418;2022-08-19T16:52:52;0.40;;;0.00;;
62353;SDS011;48391;49.184;2.418;2022-08-19T16:55:18;0.45;;;0.10;;
62353;SDS011;48391;49.184;2.418;2022-08-19T16:57:45;0.32;;;0.22;;
62353;SDS011;48391;49.184;2.418;2022-08-19T17:00:11;0.30;;;0.00;;
62353;SDS011;48391;49.184;2.418;2022-08-19T17:02:38;1.55;;;0.10;;
62353;SDS011;48391;49.184;2.418;2022-08-19T17:05:05;1.40;;;0.10;;
62353;SDS011;48391;49.184;2.418;2022-08-19T17:07:32;1.05;;;0.45;;
62353;SDS011;48391;49.184;2.418;2022-08-19T17:09:58;4.47;;;0.50;;
62353;SDS011;48391;49.184;2.418;2022-08-19T17:12:24;1.85;;;0.20;;
62353;SDS011;48391;49.184;2.418;2022-08-19T17:14:50;0.73;;;0.15;;
62353;SDS011;48391;49.184;2.418;2022-08-19T17:17:16;4.30;;;0.10;;
62353;SDS011;48391;49.184;2.418;2022-08-19T17:19:43;0.30;;;0.22;;
62353;SDS011;48391;49.184;2.418;2022-08-19T17:22:09;1.23;;;0.10;;
62353;SDS011;48391;49.184;2.418;2022-08-19T17:24:37;0.35;;;0.20;;
62353;SDS011;48391;49.184;2.418;2022-08-19T17:27:03;1.67;;;0.25;;
62353;SDS011;48391;49.184;2.418;2022-08-19T17:29:30;0.40;;;0.25;;
62353;SDS011;48391;49.184;2.418;2022-08-19T17:31:56;1.80;;;0.20;;
62353;SDS011;48391;49.184;2.418;2022-08-19T17:34:22;1.50;;;0.20;;
62353;SDS011;48391;49.184;2.418;2022-08-19T17:36:48;0.75;;;0.10;;
62353;SDS011;48391;49.184;2.418;2022-08-19T17:39:14;1.45;;;0.17;;
62353;SDS011;48391;49.184;2.418;2022-08-19T17:41:40;0.10;;;0.00;;
62353;SDS011;48391;49.184;2.418;2022-08-19T17:44:08;0.30;;;0.25;;
62353;SDS011;48391;49.184;2.418;2022-08-19T17:46:34;1.85;;;0.52;;
62353;SDS011;48391;49.184;2.418;2022-08-19T17:49:00;0.20;;;0.00;;
62353;SDS011;48391;49.184;2.418;2022-08-19T17:53:59;0.20;;;0.10;;
62353;SDS011;48391;49.184;2.418;2022-08-19T17:56:25;0.15;;;0.00;;
62353;SDS011;48391;49.184;2.418;2022-08-19T17:58:53;0.10;;;0.10;;
62353;SDS011;48391;49.184;2.418;2022-08-19T18:01:19;0.22;;;0.13;;
62353;SDS011;48391;49.184;2.418;2022-08-19T18:03:45;0.30;;;0.13;;
62353;SDS011;48391;49.184;2.418;2022-08-19T18:06:12;0.47;;;0.10;;
62353;SDS011;48391;49.184;2.418;2022-08-19T18:08:38;0.30;;;0.20;;
62353;SDS011;48391;49.184;2.418;2022-08-19T18:11:05;0.52;;;0.30;;
62353;SDS011;48391;49.184;2.418;2022-08-19T18:13:31;1.25;;;0.38;;
62353;SDS011;48391;49.184;2.418;2022-08-19T18:15:57;0.55;;;0.10;;
62353;SDS011;48391;49.184;2.418;2022-08-19T18:18:23;1.75;;;0.10;;
62353;SDS011;48391;49.184;2.418;2022-08-19T18:20:51;2.65;;;0.32;;
62353;SDS011;48391;49.184;2.418;2022-08-19T18:23:17;0.65;;;0.30;;
62353;SDS011;48391;49.184;2.418;2022-08-19T18:25:43;0.40;;;0.20;;
62353;SDS011;48391;49.184;2.418;2022-08-19T18:28:09;0.98;;;0.10;;
62353;SDS011;48391;49.184;2.418;2022-08-19T18:30:35;0.82;;;0.10;;
62353;SDS011;48391;49.184;2.418;2022-08-19T18:33:02;0.55;;;0.25;;
62353;SDS011;48391;49.184;2.418;2022-08-19T18:35:29;0.85;;;0.10;;
62353;SDS011;48391;49.184;2.418;2022-08-19T18:37:57;0.65;;;0.00;;
62353;SDS011;48391;49.184;2.418;2022-08-19T18:40:24;1.08;;;0.00;;
62353;SDS011;48391;49.184;2.418;2022-08-19T18:43:09;1.00;;;0.00;;
62353;SDS011;48391;49.184;2.418;2022-08-19T18:45:38;0.20;;;0.20;;
62353;SDS011;48391;49.184;2.418;2022-08-19T18:48:23;0.13;;;0.08;;
62353;SDS011;48391;49.184;2.418;2022-08-19T18:51:08;0.10;;;0.08;;
62353;SDS011;48391;49.184;2.418;2022-08-19T18:53:35;0.60;;;0.17;;
62353;SDS011;48391;49.184;2.418;2022-08-19T18:56:05;0.00;;;0.00;;
62353;SDS011;48391;49.184;2.418;2022-08-19T18:58:32;0.17;;;0.10;;
62353;SDS011;48391;49.184;2.418;2022-08-19T19:00:59;0.65;;;0.55;;
62353;SDS011;48391;49.184;2.418;2022-08-19T19:03:26;0.50;;;0.50;;
62353;SDS011;48391;49.184;2.418;2022-08-19T19:05:53;0.45;;;0.30;;
62353;SDS011;48391;49.184;2.418;2022-08-19T19:08:19;1.45;;;0.95;;
62353;SDS011;48391;49.184;2.418;2022-08-19T19:10:45;3.05;;;0.40;;
62353;SDS011;48391;49.184;2.418;2022-08-19T19:13:11;1.77;;;0.60;;
62353;SDS011;48391;49.184;2.418;2022-08-19T19:15:40;2.13;;;0.60;;
62353;SDS011;48391;49.184;2.418;2022-08-19T19:18:07;4.70;;;0.52;;
62353;SDS011;48391;49.184;2.418;2022-08-19T19:20:34;1.30;;;0.63;;
62353;SDS011;48391;49.184;2.418;2022-08-19T19:23:00;1.13;;;0.40;;
62353;SDS011;48391;49.184;2.418;2022-08-19T19:25:26;0.77;;;0.77;;
62353;SDS011;48391;49.184;2.418;2022-08-19T19:27:52;6.47;;;0.63;;
62353;SDS011;48391;49.184;2.418;2022-08-19T19:30:19;0.57;;;0.57;;
62353;SDS011;48391;49.184;2.418;2022-08-19T19:32:49;0.73;;;0.73;;
62353;SDS011;48391;49.184;2.418;2022-08-19T19:35:16;0.88;;;0.88;;
62353;SDS011;48391;49.184;2.418;2022-08-19T19:37:42;0.90;;;0.90;;
62353;SDS011;48391;49.184;2.418;2022-08-19T19:40:09;2.72;;;1.17;;
62353;SDS011;48391;49.184;2.418;2022-08-19T19:42:35;0.90;;;0.90;;
62353;SDS011;48391;49.184;2.418;2022-08-19T19:45:01;1.23;;;1.13;;
62353;SDS011;48391;49.184;2.418;2022-08-19T19:47:28;1.20;;;0.98;;
62353;SDS011;48391;49.184;2.418;2022-08-19T19:49:54;0.93;;;0.93;;
62353;SDS011;48391;49.184;2.418;2022-08-19T19:52:21;0.68;;;0.60;;
62353;SDS011;48391;49.184;2.418;2022-08-19T19:54:47;1.10;;;1.00;;
62353;SDS011;48391;49.184;2.418;2022-08-19T19:57:13;2.78;;;0.98;;
62353;SDS011;48391;49.184;2.418;2022-08-19T19:59:42;1.15;;;0.80;;
62353;SDS011;48391;49.184;2.418;2022-08-19T20:02:08;1.27;;;1.17;;
62353;SDS011;48391;49.184;2.418;2022-08-19T20:04:36;3.28;;;1.08;;
62353;SDS011;48391;49.184;2.418;2022-08-19T20:07:02;0.65;;;0.65;;
62353;SDS011;48391;49.184;2.418;2022-08-19T20:09:28;2.63;;;1.00;;
62353;SDS011;48391;49.184;2.418;2022-08-19T20:11:55;1.77;;;1.48;;
62353;SDS011;48391;49.184;2.418;2022-08-19T20:14:26;1.13;;;1.02;;
62353;SDS011;48391;49.184;2.418;2022-08-19T20:16:54;1.65;;;1.55;;
62353;SDS011;48391;49.184;2.418;2022-08-19T20:19:21;5.85;;;2.33;;